Time;durP1;ratioP1;P1;durP2;ratioP2;P2;SDS_P1;SDS_P2;PMS_P1;PMS_P2;Temp;Humidity;BMP_temperature;BMP_pressure;BME280_temperature;BME280_humidity;BME280_pressure;Samples;Min_cycle;Max_cycle;Signal;HPM_P1;HPM_P2
2023/07/15 00:00:15;;;;;;;7.45;4.88;;;;;;;;;;5013321;28;20053;-73
2023/07/15 00:02:42;;;;;;;7.05;5.50;;;;;;;;;;5013614;28;20026;-74
2023/07/15 00:05:17;;;;;;;7.55;5.30;;;;;;;;;;5013212;28;20022;-73
2023/07/15 00:07:43;;;;;;;8.38;5.45;;;;;;;;;;5013342;28;20412;-73
2023/07/15 00:10:10;;;;;;;7.15;5.35;;;;;;;;;;5013134;28;20033;-73
2023/07/15 00:12:36;;;;;;;7.95;5.10;;;;;;;;;;5013401;28;20437;-74
2023/07/15 00:15:02;;;;;;;6.43;5.05;;;;;;;;;;5012978;28;20464;-74
2023/07/15 00:17:28;;;;;;;6.40;5.50;;;;;;;;;;5013244;28;20057;-74
2023/07/15 00:19:54;;;;;;;6.40;5.60;;;;;;;;;;5012947;28;20074;-74
2023/07/15 00:22:20;;;;;;;7.13;5.10;;;;;;;;;;5012839;28;20458;-73
2023/07/15 00:24:46;;;;;;;7.80;4.90;;;;;;;;;;5013109;28;20113;-74
2023/07/15 00:27:12;;;;;;;6.25;4.57;;;;;;;;;;5012910;28;20097;-74
2023/07/15 00:29:38;;;;;;;8.50;4.78;;;;;;;;;;5012862;28;20052;-74
2023/07/15 00:32:09;;;;;;;7.57;5.22;;;;;;;;;;5012741;28;20026;-73
2023/07/15 00:34:35;;;;;;;6.85;5.32;;;;;;;;;;5013127;28;20030;-73
2023/07/15 00:37:01;;;;;;;6.10;5.30;;;;;;;;;;5012758;28;20355;-73
2023/07/15 00:39:27;;;;;;;7.63;5.50;;;;;;;;;;5012573;28;20113;-74
2023/07/15 00:41:54;;;;;;;6.53;5.78;;;;;;;;;;5012684;28;20473;-74
2023/07/15 00:44:21;;;;;;;7.60;5.43;;;;;;;;;;5012616;28;20029;-74
2023/07/15 00:47:16;;;;;;;6.60;5.28;;;;;;;;;;5012773;28;20030;-73
2023/07/15 00:49:43;;;;;;;7.47;5.82;;;;;;;;;;5011007;28;20038;-73
2023/07/15 00:52:10;;;;;;;6.63;4.75;;;;;;;;;;5012677;28;20022;-74
2023/07/15 00:54:37;;;;;;;5.80;4.03;;;;;;;;;;5011310;28;20589;-74
2023/07/15 00:57:05;;;;;;;7.68;5.10;;;;;;;;;;5012469;28;20026;-74
2023/07/15 00:59:31;;;;;;;6.25;5.00;;;;;;;;;;5012561;28;20046;-74
2023/07/15 01:01:57;;;;;;;5.70;4.93;;;;;;;;;;5012694;28;20057;-74
2023/07/15 01:04:23;;;;;;;8.63;4.97;;;;;;;;;;5013016;28;20033;-74
2023/07/15 01:06:49;;;;;;;6.15;4.70;;;;;;;;;;5012507;28;20678;-74
2023/07/15 01:09:16;;;;;;;5.50;4.53;;;;;;;;;;5012741;28;20453;-74
2023/07/15 01:11:42;;;;;;;6.72;4.80;;;;;;;;;;5012550;28;20041;-73
2023/07/15 01:14:09;;;;;;;6.28;4.72;;;;;;;;;;5012450;28;20037;-74
2023/07/15 01:16:35;;;;;;;6.97;4.50;;;;;;;;;;5011203;28;20046;-74
2023/07/15 01:19:04;;;;;;;6.00;4.40;;;;;;;;;;5012312;28;20025;-74
2023/07/15 01:21:35;;;;;;;6.63;4.23;;;;;;;;;;5012289;28;20018;-74
2023/07/15 01:24:02;;;;;;;6.50;4.10;;;;;;;;;;5012390;28;20264;-74
2023/07/15 01:26:29;;;;;;;6.57;4.50;;;;;;;;;;5012279;28;20041;-74
2023/07/15 01:28:55;;;;;;;5.53;4.40;;;;;;;;;;5012388;28;20022;-74
2023/07/15 01:31:21;;;;;;;6.70;4.53;;;;;;;;;;5012394;28;20706;-74
2023/07/15 01:33:47;;;;;;;7.78;4.13;;;;;;;;;;5014936;28;20029;-74
2023/07/15 01:36:13;;;;;;;5.80;4.05;;;;;;;;;;5015962;28;20022;-74
2023/07/15 01:38:41;;;;;;;6.15;4.03;;;;;;;;;;5015944;28;20037;-74
2023/07/15 01:41:07;;;;;;;6.57;3.90;;;;;;;;;;5016123;28;20026;-73
2023/07/15 01:43:33;;;;;;;6.75;4.47;;;;;;;;;;5016179;28;20109;-74
2023/07/15 01:45:59;;;;;;;5.72;4.35;;;;;;;;;;5015757;28;20110;-74
2023/07/15 01:48:26;;;;;;;7.90;4.47;;;;;;;;;;5016139;28;20026;-74
2023/07/15 01:50:52;;;;;;;6.63;4.47;;;;;;;;;;5015972;28;20037;-74
2023/07/15 01:53:19;;;;;;;5.32;3.90;;;;;;;;;;5016006;28;20026;-73
2023/07/15 01:55:45;;;;;;;5.07;4.10;;;;;;;;;;5015719;28;20030;-74
2023/07/15 01:58:11;;;;;;;7.43;3.78;;;;;;;;;;5015642;28;20022;-73
2023/07/15 02:00:37;;;;;;;6.30;4.03;;;;;;;;;;5015442;28;20380;-74
2023/07/15 02:03:03;;;;;;;10.60;4.28;;;;;;;;;;5015817;28;20026;-74
2023/07/15 02:05:29;;;;;;;6.72;4.35;;;;;;;;;;5015486;28;20080;-74
2023/07/15 02:07:55;;;;;;;6.40;4.00;;;;;;;;;;5015198;28;20034;-74
2023/07/15 02:10:22;;;;;;;6.97;4.18;;;;;;;;;;5015257;28;20481;-74
2023/07/15 02:12:48;;;;;;;6.40;3.85;;;;;;;;;;5015517;28;20046;-74
2023/07/15 02:15:14;;;;;;;5.72;4.00;;;;;;;;;;5013972;28;20084;-74
2023/07/15 02:17:40;;;;;;;5.13;3.95;;;;;;;;;;5015303;28;20030;-74
2023/07/15 02:20:07;;;;;;;4.93;3.97;;;;;;;;;;5015355;28;20061;-74
2023/07/15 02:22:34;;;;;;;7.00;4.20;;;;;;;;;;5013963;28;20358;-74
2023/07/15 02:25:00;;;;;;;5.63;4.05;;;;;;;;;;5013792;28;20028;-74
2023/07/15 02:27:26;;;;;;;5.00;4.50;;;;;;;;;;5015339;28;20025;-74
2023/07/15 02:29:52;;;;;;;5.93;4.70;;;;;;;;;;5015295;28;20038;-74
2023/07/15 02:32:35;;;;;;;5.07;4.25;;;;;;;;;;5015084;28;20346;-74
2023/07/15 02:35:01;;;;;;;5.78;4.15;;;;;;;;;;5015175;28;20432;-74
2023/07/15 02:37:27;;;;;;;6.72;4.38;;;;;;;;;;5013567;28;20018;-74
2023/07/15 02:39:53;;;;;;;6.40;4.50;;;;;;;;;;5014694;28;20037;-74
2023/07/15 02:42:19;;;;;;;7.28;4.65;;;;;;;;;;5014772;28;20026;-74
2023/07/15 02:44:45;;;;;;;6.13;4.30;;;;;;;;;;5013580;28;20084;-74
2023/07/15 02:47:11;;;;;;;5.00;4.07;;;;;;;;;;5014562;28;20029;-74
2023/07/15 02:49:37;;;;;;;11.07;4.22;;;;;;;;;;5014645;28;20021;-74
2023/07/15 02:52:08;;;;;;;6.68;4.32;;;;;;;;;;5014552;28;20110;-74
2023/07/15 02:54:34;;;;;;;4.85;4.07;;;;;;;;;;5014952;28;20026;-74
2023/07/15 02:57:00;;;;;;;7.32;4.85;;;;;;;;;;5014585;28;20034;-74
2023/07/15 02:59:26;;;;;;;7.53;4.47;;;;;;;;;;5014391;28;20036;-74
2023/07/15 03:01:52;;;;;;;4.35;3.80;;;;;;;;;;5014365;28;20030;-74
2023/07/15 03:04:18;;;;;;;5.18;4.40;;;;;;;;;;5014367;28;20026;-74
2023/07/15 03:06:44;;;;;;;6.30;4.20;;;;;;;;;;5014653;28;20528;-74
2023/07/15 03:09:11;;;;;;;4.97;4.40;;;;;;;;;;5014229;28;20116;-74
2023/07/15 03:11:37;;;;;;;6.00;4.60;;;;;;;;;;5014462;28;20033;-74
2023/07/15 03:14:03;;;;;;;7.60;4.38;;;;;;;;;;5014086;28;20030;-74
2023/07/15 03:16:30;;;;;;;6.20;4.30;;;;;;;;;;5014211;28;20099;-74
2023/07/15 03:18:56;;;;;;;6.22;4.18;;;;;;;;;;5014068;28;20101;-74
2023/07/15 03:21:22;;;;;;;5.25;3.80;;;;;;;;;;5013982;28;20026;-74
2023/07/15 03:23:48;;;;;;;7.78;4.50;;;;;;;;;;5013857;28;20029;-74
2023/07/15 03:26:14;;;;;;;8.13;4.88;;;;;;;;;;5013684;28;20026;-74
2023/07/15 03:28:40;;;;;;;5.47;4.18;;;;;;;;;;5013856;28;20033;-74
2023/07/15 03:31:06;;;;;;;6.28;4.93;;;;;;;;;;5014107;28;20105;-74
2023/07/15 03:33:32;;;;;;;8.88;5.07;;;;;;;;;;5013553;28;20153;-73
2023/07/15 03:36:03;;;;;;;8.10;5.00;;;;;;;;;;5013471;28;20037;-74
2023/07/15 03:38:29;;;;;;;6.95;4.65;;;;;;;;;;5013964;28;20030;-74
2023/07/15 03:40:56;;;;;;;8.52;5.25;;;;;;;;;;5013810;28;20495;-74
2023/07/15 03:43:22;;;;;;;8.10;5.18;;;;;;;;;;5013726;28;20018;-74
2023/07/15 03:45:48;;;;;;;7.10;5.40;;;;;;;;;;5013594;28;20388;-74
2023/07/15 03:48:14;;;;;;;6.70;4.88;;;;;;;;;;5013618;28;20022;-74
2023/07/15 03:50:40;;;;;;;8.05;5.43;;;;;;;;;;5013715;28;20098;-74
2023/07/15 03:53:06;;;;;;;7.13;5.20;;;;;;;;;;5012384;28;20032;-74
2023/07/15 03:55:32;;;;;;;6.32;5.43;;;;;;;;;;5013048;28;20026;-74
2023/07/15 03:57:58;;;;;;;8.40;5.93;;;;;;;;;;5013374;28;20053;-74
2023/07/15 04:00:24;;;;;;;6.53;5.45;;;;;;;;;;5013640;28;20041;-74
2023/07/15 04:02:53;;;;;;;9.73;5.78;;;;;;;;;;5013555;28;20083;-74
2023/07/15 04:05:19;;;;;;;8.10;5.15;;;;;;;;;;5013605;28;20018;-74
2023/07/15 04:07:45;;;;;;;6.30;5.55;;;;;;;;;;5013467;28;20018;-74
2023/07/15 04:10:11;;;;;;;7.75;5.45;;;;;;;;;;5013500;28;20052;-74
2023/07/15 04:12:38;;;;;;;9.13;5.75;;;;;;;;;;5013439;28;20101;-74
2023/07/15 04:15:05;;;;;;;6.95;5.70;;;;;;;;;;5012142;28;20044;-74
2023/07/15 04:17:31;;;;;;;9.32;6.18;;;;;;;;;;5013126;28;20113;-74
2023/07/15 04:19:56;;;;;;;7.70;5.50;;;;;;;;;;5012976;28;20117;-74
2023/07/15 04:22:24;;;;;;;8.07;5.63;;;;;;;;;;5012987;28;20080;-74
2023/07/15 04:24:50;;;;;;;6.88;6.10;;;;;;;;;;5013045;28;20101;-74
2023/07/15 04:27:16;;;;;;;7.38;6.05;;;;;;;;;;5012989;28;20112;-74
2023/07/15 04:29:42;;;;;;;7.47;5.72;;;;;;;;;;5013219;28;20060;-74
2023/07/15 04:32:08;;;;;;;6.50;5.43;;;;;;;;;;5012878;28;20062;-74
2023/07/15 04:34:34;;;;;;;10.00;5.40;;;;;;;;;;5012844;28;20030;-74
2023/07/15 04:37:00;;;;;;;8.10;4.82;;;;;;;;;;5012719;28;20397;-74
2023/07/15 04:39:27;;;;;;;6.13;4.00;;;;;;;;;;5012752;28;20038;-74
2023/07/15 04:41:53;;;;;;;6.63;3.90;;;;;;;;;;5013123;28;20033;-75
2023/07/15 04:44:19;;;;;;;5.75;3.60;;;;;;;;;;5012792;28;20022;-75
2023/07/15 04:46:45;;;;;;;5.85;3.40;;;;;;;;;;5012455;28;20033;-74
2023/07/15 04:49:12;;;;;;;4.40;3.28;;;;;;;;;;5011022;28;20377;-75
2023/07/15 04:51:38;;;;;;;4.50;3.10;;;;;;;;;;5012881;28;20026;-75
2023/07/15 04:54:04;;;;;;;5.47;3.35;;;;;;;;;;5012609;28;20022;-75
2023/07/15 04:56:30;;;;;;;6.90;3.05;;;;;;;;;;5012588;28;20473;-75
2023/07/15 04:58:56;;;;;;;5.47;3.05;;;;;;;;;;5012541;28;20030;-75
2023/07/15 05:01:22;;;;;;;4.57;3.03;;;;;;;;;;5012565;28;20084;-75
2023/07/15 05:03:48;;;;;;;5.30;3.45;;;;;;;;;;5012573;28;20030;-75
2023/07/15 05:06:15;;;;;;;5.20;3.22;;;;;;;;;;5012517;28;20084;-75
2023/07/15 05:08:42;;;;;;;4.20;3.40;;;;;;;;;;5015599;28;20026;-75
2023/07/15 05:11:08;;;;;;;7.30;3.80;;;;;;;;;;5016830;28;20350;-75
2023/07/15 05:13:34;;;;;;;4.65;4.18;;;;;;;;;;5016477;28;20057;-75
2023/07/15 05:16:00;;;;;;;5.57;4.00;;;;;;;;;;5015125;28;20053;-75
2023/07/15 05:18:26;;;;;;;4.97;4.00;;;;;;;;;;5016440;28;20037;-75
2023/07/15 05:20:52;;;;;;;4.15;3.83;;;;;;;;;;5016255;28;20034;-75
2023/07/15 05:23:18;;;;;;;4.18;3.58;;;;;;;;;;5016674;28;20026;-75
2023/07/15 05:25:44;;;;;;;6.28;3.78;;;;;;;;;;5016710;28;20152;-75
2023/07/15 05:28:10;;;;;;;4.82;3.55;;;;;;;;;;5016252;28;20108;-75
2023/07/15 05:30:37;;;;;;;4.43;3.40;;;;;;;;;;5016088;28;20537;-75
2023/07/15 05:33:03;;;;;;;4.45;3.40;;;;;;;;;;5016427;28;20018;-75
2023/07/15 05:35:29;;;;;;;5.57;3.17;;;;;;;;;;5016100;28;20021;-75
2023/07/15 05:37:55;;;;;;;4.97;3.50;;;;;;;;;;5015969;28;20472;-75
2023/07/15 05:40:21;;;;;;;5.40;3.55;;;;;;;;;;5015873;28;20042;-75
2023/07/15 05:42:47;;;;;;;3.42;2.80;;;;;;;;;;5015928;28;20460;-75
2023/07/15 05:45:13;;;;;;;3.72;2.92;;;;;;;;;;5015784;28;20030;-75
2023/07/15 05:47:39;;;;;;;4.45;2.80;;;;;;;;;;5015812;28;20369;-75
2023/07/15 05:50:06;;;;;;;5.32;3.00;;;;;;;;;;5015944;28;20022;-75
2023/07/15 05:52:32;;;;;;;4.07;3.00;;;;;;;;;;5015762;28;20018;-75
2023/07/15 05:54:58;;;;;;;5.50;2.70;;;;;;;;;;5011541;28;20026;-75
2023/07/15 05:57:24;;;;;;;3.05;2.75;;;;;;;;;;4996099;28;20034;-75
2023/07/15 05:59:51;;;;;;;4.43;2.95;;;;;;;;;;4995842;28;20038;-75
2023/07/15 06:02:17;;;;;;;3.47;2.30;;;;;;;;;;4995904;28;20081;-74
2023/07/15 06:04:43;;;;;;;4.82;2.80;;;;;;;;;;4995814;28;20030;-74
2023/07/15 06:07:09;;;;;;;3.13;2.45;;;;;;;;;;5026814;28;20026;-75
2023/07/15 06:09:35;;;;;;;4.88;2.53;;;;;;;;;;4995761;28;20037;-74
2023/07/15 06:12:02;;;;;;;3.30;2.60;;;;;;;;;;4996123;28;20033;-75
2023/07/15 06:14:28;;;;;;;2.45;2.03;;;;;;;;;;4996200;28;20389;-75
2023/07/15 06:16:54;;;;;;;3.63;2.30;;;;;;;;;;4993175;28;20569;-75
2023/07/15 06:19:20;;;;;;;3.35;2.00;;;;;;;;;;4995348;28;20038;-75
2023/07/15 06:21:46;;;;;;;2.85;1.98;;;;;;;;;;4995702;28;20030;-74
2023/07/15 06:24:13;;;;;;;4.47;2.03;;;;;;;;;;4994321;28;20030;-75
2023/07/15 06:26:39;;;;;;;4.47;2.00;;;;;;;;;;4995972;28;20037;-75
2023/07/15 06:29:05;;;;;;;2.88;1.92;;;;;;;;;;4997363;28;20034;-75
2023/07/15 06:31:31;;;;;;;2.53;1.80;;;;;;;;;;5009834;28;20030;-75
2023/07/15 06:33:57;;;;;;;3.30;2.08;;;;;;;;;;5016099;28;20453;-74
2023/07/15 06:36:23;;;;;;;4.15;2.05;;;;;;;;;;5015475;28;20030;-74
2023/07/15 06:38:49;;;;;;;4.07;2.10;;;;;;;;;;5017781;28;20022;-75
2023/07/15 06:41:15;;;;;;;3.30;1.85;;;;;;;;;;5019416;28;20041;-75
2023/07/15 06:43:41;;;;;;;3.42;1.70;;;;;;;;;;5017212;28;20061;-75
2023/07/15 06:46:07;;;;;;;3.85;2.00;;;;;;;;;;5014772;28;20065;-75
2023/07/15 06:48:33;;;;;;;2.65;1.77;;;;;;;;;;5014781;28;20108;-74
2023/07/15 06:50:59;;;;;;;2.83;1.70;;;;;;;;;;5014704;28;20037;-74
2023/07/15 06:53:25;;;;;;;2.80;1.67;;;;;;;;;;5014570;28;20022;-75
2023/07/15 06:55:52;;;;;;;3.55;1.30;;;;;;;;;;5013555;28;20148;-75
2023/07/15 06:58:18;;;;;;;2.55;1.30;;;;;;;;;;5014616;28;20098;-75
2023/07/15 07:00:45;;;;;;;4.05;1.35;;;;;;;;;;5014524;28;20185;-75
2023/07/15 07:03:11;;;;;;;3.50;1.40;;;;;;;;;;5014781;28;20076;-75
2023/07/15 07:05:37;;;;;;;1.33;1.08;;;;;;;;;;5014638;28;20034;-74
2023/07/15 07:08:03;;;;;;;3.65;1.50;;;;;;;;;;5014671;28;20026;-75
2023/07/15 07:10:29;;;;;;;2.15;1.30;;;;;;;;;;5015639;28;20022;-75
2023/07/15 07:12:55;;;;;;;2.03;0.90;;;;;;;;;;5014405;28;20101;-75
2023/07/15 07:15:21;;;;;;;4.40;1.23;;;;;;;;;;5012795;28;20042;-75
2023/07/15 07:17:47;;;;;;;2.35;1.15;;;;;;;;;;5014259;28;20073;-75
2023/07/15 07:20:13;;;;;;;4.05;1.00;;;;;;;;;;5014092;28;20092;-74
2023/07/15 07:22:39;;;;;;;3.90;1.00;;;;;;;;;;5013976;28;20034;-74
2023/07/15 07:25:06;;;;;;;2.78;1.10;;;;;;;;;;5014310;28;20093;-75
2023/07/15 07:27:32;;;;;;;4.18;1.05;;;;;;;;;;5014088;28;20032;-74
2023/07/15 07:29:59;;;;;;;2.75;1.05;;;;;;;;;;5015538;28;20420;-75
2023/07/15 07:32:25;;;;;;;3.38;1.25;;;;;;;;;;5014327;28;20359;-75
2023/07/15 07:34:51;;;;;;;2.70;1.02;;;;;;;;;;5013799;28;20112;-75
2023/07/15 07:37:17;;;;;;;5.28;1.40;;;;;;;;;;5013790;28;20097;-75
2023/07/15 07:39:43;;;;;;;3.88;1.25;;;;;;;;;;5013669;28;20576;-75
2023/07/15 07:42:09;;;;;;;4.32;1.08;;;;;;;;;;5013804;28;20072;-75
2023/07/15 07:44:35;;;;;;;3.88;1.10;;;;;;;;;;5013636;28;20056;-75
2023/07/15 07:47:08;;;;;;;5.03;1.40;;;;;;;;;;5013954;28;20453;-75
2023/07/15 07:49:34;;;;;;;3.42;1.15;;;;;;;;;;5014162;28;20511;-75
2023/07/15 07:52:00;;;;;;;7.75;1.73;;;;;;;;;;5014894;28;20026;-75
2023/07/15 07:54:26;;;;;;;3.97;1.48;;;;;;;;;;5013730;28;20054;-75
2023/07/15 07:56:52;;;;;;;4.63;1.30;;;;;;;;;;5013905;28;20068;-75
2023/07/15 07:59:18;;;;;;;3.67;1.42;;;;;;;;;;5012195;28;20034;-75
2023/07/15 08:01:44;;;;;;;5.10;1.27;;;;;;;;;;5013336;28;20030;-75
2023/07/15 08:04:10;;;;;;;3.60;1.10;;;;;;;;;;5013660;28;20505;-75
2023/07/15 08:06:36;;;;;;;6.88;1.30;;;;;;;;;;5013448;28;20032;-75
2023/07/15 08:09:02;;;;;;;8.30;1.45;;;;;;;;;;5013309;28;20026;-75
2023/07/15 08:11:28;;;;;;;5.38;1.50;;;;;;;;;;5013240;28;20041;-75
2023/07/15 08:13:54;;;;;;;4.18;1.40;;;;;;;;;;5013300;28;20037;-75
2023/07/15 08:16:33;;;;;;;2.63;1.20;;;;;;;;;;5011862;28;20049;-75
2023/07/15 08:19:00;;;;;;;4.00;1.37;;;;;;;;;;5013167;28;20053;-75
2023/07/15 08:21:29;;;;;;;5.75;1.73;;;;;;;;;;5013067;28;20026;-75
2023/07/15 08:23:55;;;;;;;5.63;1.63;;;;;;;;;;5013165;28;20029;-75
2023/07/15 08:26:22;;;;;;;3.65;1.23;;;;;;;;;;5013030;28;20542;-74
2023/07/15 08:28:48;;;;;;;3.78;1.35;;;;;;;;;;5013093;28;20026;-75
2023/07/15 08:31:14;;;;;;;3.50;1.25;;;;;;;;;;5013010;28;20022;-75
2023/07/15 08:33:40;;;;;;;5.65;1.60;;;;;;;;;;5013459;28;20022;-75
2023/07/15 08:36:06;;;;;;;4.53;1.52;;;;;;;;;;5013489;28;20022;-75
2023/07/15 08:38:32;;;;;;;4.78;1.50;;;;;;;;;;5013028;28;20018;-75
2023/07/15 08:41:01;;;;;;;5.32;1.67;;;;;;;;;;5012813;28;20400;-74
2023/07/15 08:43:27;;;;;;;;;;;;;;;;;;5013262;28;20097;-75
2023/07/15 08:45:56;;;;;;;4.18;1.65;;;;;;;;;;5011273;28;19943;-75
2023/07/15 08:48:21;;;;;;;3.40;1.50;;;;;;;;;;5012767;28;20109;-74
2023/07/15 08:50:49;;;;;;;3.30;1.35;;;;;;;;;;5012619;28;20105;-75
2023/07/15 08:53:24;;;;;;;4.05;1.58;;;;;;;;;;5012820;28;20073;-75
2023/07/15 08:55:51;;;;;;;4.53;1.85;;;;;;;;;;5012710;28;20099;-75
2023/07/15 08:58:17;;;;;;;4.00;1.25;;;;;;;;;;5012687;28;20069;-75
2023/07/15 09:00:44;;;;;;;2.90;1.20;;;;;;;;;;5012561;28;20030;-75
2023/07/15 09:03:10;;;;;;;11.07;3.88;;;;;;;;;;5012869;28;20074;-75
2023/07/15 09:05:36;;;;;;;4.30;1.40;;;;;;;;;;5012797;28;20436;-75
2023/07/15 09:08:09;;;;;;;3.38;1.40;;;;;;;;;;5012562;28;20038;-75
2023/07/15 09:10:35;;;;;;;3.67;1.50;;;;;;;;;;5011232;28;20032;-76
2023/07/15 09:13:01;;;;;;;2.65;1.30;;;;;;;;;;5012838;28;20214;-76
2023/07/15 09:15:27;;;;;;;2.30;1.08;;;;;;;;;;5011105;28;20050;-76
2023/07/15 09:17:54;;;;;;;4.57;1.63;;;;;;;;;;5012559;28;20022;-76
2023/07/15 09:20:21;;;;;;;4.40;1.27;;;;;;;;;;5012366;28;20038;-75
2023/07/15 09:23:05;;;;;;;3.53;1.33;;;;;;;;;;5012405;28;20022;-75
2023/07/15 09:25:31;;;;;;;2.55;1.38;;;;;;;;;;5012462;28;20040;-76
2023/07/15 09:27:58;;;;;;;3.33;1.40;;;;;;;;;;5012823;28;20025;-76
2023/07/15 09:30:24;;;;;;;4.18;1.38;;;;;;;;;;5012643;28;20039;-76
2023/07/15 09:32:50;;;;;;;4.45;1.70;;;;;;;;;;5012310;28;20022;-75
2023/07/15 09:35:16;;;;;;;2.67;1.35;;;;;;;;;;5012235;28;20133;-75
2023/07/15 09:37:42;;;;;;;3.28;1.40;;;;;;;;;;5012250;28;20109;-75
2023/07/15 09:40:09;;;;;;;3.90;1.60;;;;;;;;;;5012163;28;20045;-76
2023/07/15 09:42:53;;;;;;;4.90;1.60;;;;;;;;;;5012284;28;20161;-76
2023/07/15 09:45:39;;;;;;;3.15;1.40;;;;;;;;;;5012199;28;20030;-76
2023/07/15 09:48:10;;;;;;;3.28;1.50;;;;;;;;;;5012288;28;20072;-75
2023/07/15 09:50:37;;;;;;;4.82;1.55;;;;;;;;;;5012184;28;20061;-76
2023/07/15 09:53:03;;;;;;;2.92;1.38;;;;;;;;;;5012176;28;20056;-76
2023/07/15 09:55:30;;;;;;;2.35;1.27;;;;;;;;;;5015573;28;20030;-76
2023/07/15 09:58:05;;;;;;;2.70;1.55;;;;;;;;;;5015663;28;20026;-76
2023/07/15 10:00:34;;;;;;;3.03;1.50;;;;;;;;;;5017459;28;20061;-76
2023/07/15 10:03:00;;;;;;;;;;;;;;;;;;5016307;28;20519;-76
2023/07/15 10:05:26;;;;;;;5.32;1.40;;;;;;;;;;5015400;28;19999;-76
2023/07/15 10:07:52;;;;;;;4.68;1.45;;;;;;;;;;5015606;28;20028;-76
2023/07/15 10:10:21;;;;;;;2.25;1.30;;;;;;;;;;5015526;28;20384;-75
2023/07/15 10:12:48;;;;;;;2.70;1.30;;;;;;;;;;5015493;28;20045;-75
2023/07/15 10:15:28;;;;;;;2.70;1.40;;;;;;;;;;5014111;28;20046;-76
2023/07/15 10:18:13;;;;;;;5.07;1.60;;;;;;;;;;5015406;28;20038;-75
2023/07/15 10:21:00;;;;;;;2.65;1.30;;;;;;;;;;5015712;28;20022;-76
2023/07/15 10:23:27;;;;;;;3.13;1.50;;;;;;;;;;5015321;28;20032;-76
2023/07/15 10:26:06;;;;;;;4.18;1.45;;;;;;;;;;5015653;28;20060;-76
2023/07/15 10:28:42;;;;;;;3.97;1.60;;;;;;;;;;5015383;28;20030;-75
2023/07/15 10:31:12;;;;;;;2.75;1.60;;;;;;;;;;5015207;28;20030;-76
2023/07/15 10:34:08;;;;;;;3.65;1.45;;;;;;;;;;5015134;28;20030;-74
2023/07/15 10:36:40;;;;;;;3.10;1.50;;;;;;;;;;5002665;28;20056;-74
2023/07/15 10:39:29;;;;;;;3.97;1.80;;;;;;;;;;5015085;28;20433;-75
2023/07/15 10:41:55;;;;;;;;;;;;;;;;;;5013554;28;20034;-74
2023/07/15 10:44:22;;;;;;;9.23;2.85;;;;;;;;;;5014809;28;19952;-75
2023/07/15 10:46:50;;;;;;;130.30;25.75;;;;;;;;;;5014605;28;20412;-75
2023/07/15 10:49:18;;;;;;;146.77;30.13;;;;;;;;;;5014773;28;20088;-75
2023/07/15 10:51:44;;;;;;;15.10;3.75;;;;;;;;;;5014927;28;20117;-75
2023/07/15 10:54:11;;;;;;;17.58;3.00;;;;;;;;;;5014479;28;20022;-75
2023/07/15 10:56:38;;;;;;;4.85;1.65;;;;;;;;;;5014313;28;20497;-75
2023/07/15 10:59:04;;;;;;;42.72;8.52;;;;;;;;;;5014833;28;20511;-75
2023/07/15 11:01:31;;;;;;;111.55;23.90;;;;;;;;;;5014522;28;20038;-75
2023/07/15 11:04:04;;;;;;;99.25;18.67;;;;;;;;;;5014388;28;20022;-75
2023/07/15 11:06:30;;;;;;;52.10;5.10;;;;;;;;;;5013782;28;20076;-75
2023/07/15 11:08:56;;;;;;;16.50;2.72;;;;;;;;;;5014417;28;20029;-75
2023/07/15 11:11:23;;;;;;;4.35;1.10;;;;;;;;;;5014257;28;20041;-75
2023/07/15 11:13:49;;;;;;;4.88;1.40;;;;;;;;;;5014155;28;20412;-75
2023/07/15 11:16:15;;;;;;;3.75;1.70;;;;;;;;;;5012932;28;20057;-75
2023/07/15 11:18:41;;;;;;;15.32;3.60;;;;;;;;;;5014136;28;20037;-75
2023/07/15 11:21:07;;;;;;;3.90;1.33;;;;;;;;;;5013609;28;20072;-75
2023/07/15 11:23:34;;;;;;;3.25;1.25;;;;;;;;;;5013856;28;20469;-75
2023/07/15 11:26:09;;;;;;;2.40;1.30;;;;;;;;;;5014296;28;20057;-75
2023/07/15 11:28:45;;;;;;;1.55;0.95;;;;;;;;;;5014148;28;20033;-75
2023/07/15 11:31:12;;;;;;;3.22;1.23;;;;;;;;;;5014167;28;20048;-75
2023/07/15 11:33:38;;;;;;;4.55;1.40;;;;;;;;;;5014058;28;20061;-75
2023/07/15 11:36:05;;;;;;;2.53;1.20;;;;;;;;;;5012544;28;20060;-75
2023/07/15 11:38:41;;;;;;;1.80;1.20;;;;;;;;;;5013994;28;20030;-75
2023/07/15 11:41:07;;;;;;;3.83;1.55;;;;;;;;;;5013644;28;20472;-75
2023/07/15 11:43:33;;;;;;;3.40;1.40;;;;;;;;;;5013741;28;20030;-75
2023/07/15 11:46:00;;;;;;;2.45;1.45;;;;;;;;;;5014051;28;20087;-75
2023/07/15 11:48:27;;;;;;;4.18;1.75;;;;;;;;;;5012379;28;20061;-74
2023/07/15 11:50:57;;;;;;;3.45;1.33;;;;;;;;;;5013669;28;20068;-74
2023/07/15 11:53:23;;;;;;;4.22;1.60;;;;;;;;;;5013552;28;20033;-75
2023/07/15 11:55:49;;;;;;;2.55;1.50;;;;;;;;;;5012232;28;20430;-75
2023/07/15 11:58:34;;;;;;;2.58;1.33;;;;;;;;;;5013444;28;20060;-75
2023/07/15 12:01:00;;;;;;;2.08;1.23;;;;;;;;;;5013323;28;20037;-75
2023/07/15 12:03:27;;;;;;;4.10;1.77;;;;;;;;;;5013327;28;20030;-75
2023/07/15 12:05:53;;;;;;;2.03;1.30;;;;;;;;;;5013351;28;20018;-76
2023/07/15 12:08:19;;;;;;;2.65;1.27;;;;;;;;;;5013178;28;20026;-75
2023/07/15 12:10:50;;;;;;;2.08;1.20;;;;;;;;;;5013224;28;20029;-74
2023/07/15 12:13:16;;;;;;;1.55;1.25;;;;;;;;;;5013219;28;20022;-75
2023/07/15 12:15:42;;;;;;;3.45;1.60;;;;;;;;;;5012291;28;20026;-75
2023/07/15 12:18:08;;;;;;;2.60;1.30;;;;;;;;;;5012714;28;20576;-74
2023/07/15 12:20:34;;;;;;;1.80;1.35;;;;;;;;;;5008604;28;20034;-74
2023/07/15 12:23:00;;;;;;;2.90;1.58;;;;;;;;;;5010708;28;20101;-75
2023/07/15 12:25:26;;;;;;;3.10;1.60;;;;;;;;;;5012924;28;20030;-74
2023/07/15 12:27:52;;;;;;;3.92;1.30;;;;;;;;;;5012789;28;20026;-74
2023/07/15 12:30:18;;;;;;;2.13;1.40;;;;;;;;;;5010863;28;20044;-73
2023/07/15 12:32:44;;;;;;;2.08;1.30;;;;;;;;;;4993167;28;20109;-74
2023/07/15 12:35:12;;;;;;;1.38;1.27;;;;;;;;;;5001603;28;20553;-74
2023/07/15 12:37:40;;;;;;;2.22;1.55;;;;;;;;;;5012279;28;20671;-74
2023/07/15 12:40:07;;;;;;;4.30;1.52;;;;;;;;;;5011991;28;20096;-74
2023/07/15 12:42:35;;;;;;;2.33;1.40;;;;;;;;;;5012586;28;20084;-74
2023/07/15 12:45:00;;;;;;;3.30;1.90;;;;;;;;;;5012809;28;20465;-74
2023/07/15 12:47:26;;;;;;;4.07;1.60;;;;;;;;;;5012550;28;20058;-74
2023/07/15 12:49:52;;;;;;;3.15;1.48;;;;;;;;;;5012644;28;20120;-75
2023/07/15 12:52:18;;;;;;;1.50;1.35;;;;;;;;;;5012571;28;20449;-75
2023/07/15 12:54:44;;;;;;;1.65;1.50;;;;;;;;;;5007909;28;20039;-74
2023/07/15 12:57:10;;;;;;;3.10;1.60;;;;;;;;;;4992975;28;20117;-75
2023/07/15 12:59:37;;;;;;;3.10;1.70;;;;;;;;;;4992941;28;20117;-75
2023/07/15 13:02:04;;;;;;;2.38;1.55;;;;;;;;;;4993369;28;20041;-75
2023/07/15 13:04:33;;;;;;;4.70;1.60;;;;;;;;;;4992942;28;20072;-75
2023/07/15 13:06:59;;;;;;;2.97;1.55;;;;;;;;;;4992914;28;20035;-75
2023/07/15 13:09:25;;;;;;;2.63;1.50;;;;;;;;;;5003244;28;20029;-75
2023/07/15 13:11:51;;;;;;;2.58;1.50;;;;;;;;;;4992829;28;20072;-75
2023/07/15 13:14:17;;;;;;;3.22;1.58;;;;;;;;;;4992838;28;20022;-75
2023/07/15 13:16:43;;;;;;;4.03;1.70;;;;;;;;;;4991844;28;20081;-73
2023/07/15 13:19:09;;;;;;;3.70;1.73;;;;;;;;;;4992736;28;20078;-73
2023/07/15 13:21:35;;;;;;;3.42;1.60;;;;;;;;;;4992809;28;20068;-74
2023/07/15 13:24:01;;;;;;;3.33;1.42;;;;;;;;;;4992851;28;20050;-74
2023/07/15 13:26:27;;;;;;;2.05;1.50;;;;;;;;;;4992686;28;20026;-74
2023/07/15 13:28:53;;;;;;;3.28;1.50;;;;;;;;;;4993912;28;20033;-74
2023/07/15 13:31:19;;;;;;;1.85;1.67;;;;;;;;;;4996489;28;20038;-74
2023/07/15 13:33:45;;;;;;;2.83;1.52;;;;;;;;;;4996465;28;20369;-74
2023/07/15 13:36:11;;;;;;;4.55;1.48;;;;;;;;;;4996395;28;20023;-74
2023/07/15 13:38:37;;;;;;;3.83;1.67;;;;;;;;;;4996301;28;20393;-74
2023/07/15 13:41:03;;;;;;;3.17;1.50;;;;;;;;;;4995898;28;20480;-74
2023/07/15 13:43:29;;;;;;;3.97;1.50;;;;;;;;;;4997785;28;20036;-74
2023/07/15 13:45:56;;;;;;;4.53;1.80;;;;;;;;;;5015762;28;20060;-74
2023/07/15 13:48:22;;;;;;;3.55;1.60;;;;;;;;;;5013847;28;20033;-73
2023/07/15 13:50:48;;;;;;;3.40;1.67;;;;;;;;;;5009551;28;20026;-74
2023/07/15 13:53:14;;;;;;;1.85;1.40;;;;;;;;;;5014625;28;20128;-73
2023/07/15 13:55:40;;;;;;;3.65;1.60;;;;;;;;;;5015172;28;20171;-73
2023/07/15 13:58:06;;;;;;;2.65;1.58;;;;;;;;;;5015203;28;20533;-73
2023/07/15 14:00:32;;;;;;;3.42;1.88;;;;;;;;;;5015238;28;20041;-74
2023/07/15 14:02:58;;;;;;;4.65;1.65;;;;;;;;;;5014340;28;20026;-73
2023/07/15 14:05:24;;;;;;;3.20;1.50;;;;;;;;;;5015299;28;20036;-74
2023/07/15 14:07:50;;;;;;;2.45;1.30;;;;;;;;;;5015492;28;20041;-74
2023/07/15 14:10:16;;;;;;;2.90;1.38;;;;;;;;;;5016143;28;20069;-74
2023/07/15 14:12:42;;;;;;;2.50;1.70;;;;;;;;;;5005614;28;20036;-74
2023/07/15 14:15:09;;;;;;;2.35;1.70;;;;;;;;;;5015523;28;20369;-74
2023/07/15 14:17:35;;;;;;;3.92;1.50;;;;;;;;;;5006235;28;20078;-74
2023/07/15 14:20:01;;;;;;;3.65;1.45;;;;;;;;;;4995676;28;20062;-74
2023/07/15 14:22:27;;;;;;;3.42;1.70;;;;;;;;;;4995909;28;20023;-75
2023/07/15 14:24:53;;;;;;;2.55;1.40;;;;;;;;;;4995568;28;20114;-75
2023/07/15 14:27:19;;;;;;;2.00;1.50;;;;;;;;;;4995495;28;20418;-74
2023/07/15 14:29:45;;;;;;;1.75;1.52;;;;;;;;;;5002670;28;20038;-74
2023/07/15 14:32:11;;;;;;;2.65;1.50;;;;;;;;;;5014998;28;20022;-74
2023/07/15 14:34:38;;;;;;;2.95;1.75;;;;;;;;;;5014950;28;20034;-74
2023/07/15 14:37:04;;;;;;;1.90;1.50;;;;;;;;;;5014930;28;20030;-74
2023/07/15 14:39:30;;;;;;;3.55;1.65;;;;;;;;;;5014727;28;20022;-74
2023/07/15 14:41:56;;;;;;;2.60;1.63;;;;;;;;;;5014673;28;20386;-75